Time;durP1;ratioP1;P1;durP2;ratioP2;P2;SDS_P1;SDS_P2;PMS_P1;PMS_P2;Temp;Humidity;BMP_temperature;BMP_pressure;BME280_temperature;BME280_humidity;BME280_pressure;Samples;Min_cycle;Max_cycle;Signal;HPM_P1;HPM_P2
2022/03/01 00:02:16;;;;;;;18.58;10.50;;;2.60;99.90;;;;;;5032030;28;20099;-52
2022/03/01 00:04:42;;;;;;;17.65;10.02;;;2.60;99.90;;;;;;5023811;28;20105;-51
2022/03/01 00:07:07;;;;;;;15.73;9.73;;;2.60;99.90;;;;;;5031801;28;20135;-51
2022/03/01 00:09:34;;;;;;;19.40;11.00;;;2.60;99.90;;;;;;5031780;28;20058;-50
2022/03/01 00:12:00;;;;;;;17.30;10.95;;;2.60;99.90;;;;;;5032212;28;20131;-46
2022/03/01 00:14:26;;;;;;;17.33;9.63;;;2.50;99.90;;;;;;5014362;28;20497;-48
2022/03/01 00:16:51;;;;;;;18.85;10.45;;;2.50;99.90;;;;;;5031822;28;20473;-47
2022/03/01 00:19:17;;;;;;;18.80;11.23;;;2.40;99.90;;;;;;5031940;28;20041;-47
2022/03/01 00:21:43;;;;;;;19.83;10.18;;;2.50;99.90;;;;;;5031994;28;20045;-50
2022/03/01 00:24:08;;;;;;;17.48;10.20;;;2.50;99.90;;;;;;5031862;28;20040;-50
2022/03/01 00:26:34;;;;;;;17.88;10.82;;;2.40;99.90;;;;;;5031623;28;20042;-48
2022/03/01 00:29:00;;;;;;;21.80;10.68;;;2.30;99.90;;;;;;5031893;28;20236;-46
2022/03/01 00:31:26;;;;;;;17.85;10.05;;;2.40;99.90;;;;;;5035460;28;20084;-47
2022/03/01 00:33:51;;;;;;;17.60;10.43;;;2.30;99.90;;;;;;5035771;28;20048;-46
2022/03/01 00:36:17;;;;;;;16.83;9.98;;;2.40;99.90;;;;;;5035637;28;20128;-48
2022/03/01 00:38:42;;;;;;;21.02;10.52;;;2.40;99.90;;;;;;5035264;28;20049;-46
2022/03/01 00:41:08;;;;;;;17.10;10.30;;;2.40;99.90;;;;;;5035300;28;20073;-48
2022/03/01 00:43:34;;;;;;;18.67;10.38;;;2.40;99.90;;;;;;5035373;28;20037;-47
2022/03/01 00:46:00;;;;;;;17.50;9.55;;;2.30;99.90;;;;;;5035363;28;20044;-48
2022/03/01 00:48:25;;;;;;;19.17;11.00;;;2.30;99.90;;;;;;5035170;28;20374;-46
2022/03/01 00:50:51;;;;;;;18.55;10.55;;;2.20;99.90;;;;;;5035346;28;20091;-47
2022/03/01 00:53:16;;;;;;;21.40;11.55;;;2.20;99.90;;;;;;5034954;28;20133;-46
2022/03/01 00:55:42;;;;;;;17.77;11.60;;;2.20;99.90;;;;;;5035190;28;20037;-46
2022/03/01 00:58:08;;;;;;;16.75;10.10;;;2.20;99.90;;;;;;5035100;28;20049;-48
2022/03/01 01:00:34;;;;;;;16.75;10.55;;;2.20;99.90;;;;;;5034907;28;20033;-51
2022/03/01 01:03:00;;;;;;;16.50;10.27;;;2.20;99.90;;;;;;5034758;28;20481;-50
2022/03/01 01:05:26;;;;;;;18.65;10.77;;;2.20;99.90;;;;;;5027021;28;20037;-51
2022/03/01 01:07:52;;;;;;;16.27;9.55;;;2.20;99.90;;;;;;5034716;28;20037;-48
2022/03/01 01:10:18;;;;;;;19.27;10.68;;;2.20;99.90;;;;;;5034668;28;20057;-48
2022/03/01 01:12:44;;;;;;;15.88;9.80;;;2.20;99.90;;;;;;5034698;28;20788;-46
2022/03/01 01:15:11;;;;;;;16.92;10.63;;;2.20;99.90;;;;;;5034769;28;20049;-49
2022/03/01 01:17:37;;;;;;;18.70;10.43;;;2.20;99.90;;;;;;5033650;28;20056;-47
2022/03/01 01:20:05;;;;;;;17.95;10.60;;;2.20;99.90;;;;;;5034879;28;20046;-47
2022/03/01 01:22:40;;;;;;;17.58;10.40;;;2.20;99.90;;;;;;5034450;28;20037;-46
2022/03/01 01:25:16;;;;;;;16.90;9.88;;;2.20;99.90;;;;;;5034666;28;20389;-48
2022/03/01 01:27:45;;;;;;;16.33;10.23;;;2.20;99.90;;;;;;5034359;28;20478;-47
2022/03/01 01:30:14;;;;;;;15.15;9.60;;;2.20;99.90;;;;;;5016705;28;20056;-47
2022/03/01 01:32:40;;;;;;;16.23;10.35;;;2.20;99.90;;;;;;5034393;28;20048;-47
2022/03/01 01:35:07;;;;;;;18.33;9.95;;;2.20;99.90;;;;;;5034581;28;20095;-47
2022/03/01 01:37:34;;;;;;;16.10;9.63;;;2.20;99.90;;;;;;5034345;28;20124;-48
2022/03/01 01:40:00;;;;;;;16.20;9.85;;;2.10;99.90;;;;;;5034171;28;20478;-46
2022/03/01 01:42:26;;;;;;;17.90;10.45;;;2.20;99.90;;;;;;5016126;28;20446;-46
2022/03/01 01:44:52;;;;;;;17.42;10.20;;;2.10;99.90;;;;;;5034094;28;20084;-46
2022/03/01 01:47:18;;;;;;;18.67;9.82;;;2.00;99.90;;;;;;5033970;28;20436;-47
2022/03/01 01:49:43;;;;;;;18.33;10.27;;;2.00;99.90;;;;;;5033029;28;20046;-50
2022/03/01 01:52:09;;;;;;;19.08;10.50;;;2.00;99.90;;;;;;5034163;28;20033;-52
2022/03/01 01:54:35;;;;;;;18.15;9.75;;;2.00;99.90;;;;;;5034072;28;20462;-47
2022/03/01 01:57:01;;;;;;;17.50;10.63;;;2.00;99.90;;;;;;5034093;28;20116;-48
2022/03/01 01:59:27;;;;;;;16.50;10.02;;;2.00;99.90;;;;;;5016148;28;20047;-46
2022/03/01 02:01:52;;;;;;;18.77;10.90;;;1.90;99.90;;;;;;5033898;28;20045;-51
2022/03/01 02:04:18;;;;;;;17.95;9.90;;;1.90;99.90;;;;;;5025969;28;20121;-51
2022/03/01 02:06:54;;;;;;;17.88;10.38;;;1.90;99.90;;;;;;5014056;28;20049;-50
2022/03/01 02:09:20;;;;;;;16.17;10.27;;;2.00;99.90;;;;;;5013773;28;20066;-53
2022/03/01 02:11:46;;;;;;;19.77;11.25;;;1.90;99.90;;;;;;5013857;28;20103;-50
2022/03/01 02:14:12;;;;;;;18.63;10.90;;;1.90;99.90;;;;;;5014116;28;20087;-48
2022/03/01 02:16:39;;;;;;;19.63;11.35;;;1.90;99.90;;;;;;5014156;28;20423;-46
2022/03/01 02:19:05;;;;;;;19.58;10.25;;;1.90;99.90;;;;;;5014058;28;20046;-51
2022/03/01 02:21:31;;;;;;;17.48;9.85;;;2.00;99.90;;;;;;5014066;28;20045;-48
2022/03/01 02:23:57;;;;;;;18.38;10.88;;;2.00;99.90;;;;;;5013586;28;20042;-46
2022/03/01 02:26:23;;;;;;;15.95;9.88;;;2.10;99.90;;;;;;5013479;28;20038;-50
2022/03/01 02:28:48;;;;;;;20.08;11.02;;;2.00;99.90;;;;;;5013496;28;20045;-48
2022/03/01 02:31:14;;;;;;;17.33;10.55;;;2.10;99.90;;;;;;4995723;28;20046;-52
2022/03/01 02:33:40;;;;;;;20.48;10.85;;;2.00;99.90;;;;;;5013647;28;20127;-50
2022/03/01 02:36:06;;;;;;;17.92;10.30;;;2.00;99.90;;;;;;5013648;28;20046;-51
2022/03/01 02:38:31;;;;;;;15.00;10.02;;;2.10;99.90;;;;;;5013362;28;20042;-48
2022/03/01 02:40:57;;;;;;;17.50;10.73;;;2.10;99.90;;;;;;4995822;28;20088;-47
2022/03/01 02:43:23;;;;;;;17.63;10.10;;;2.10;99.90;;;;;;5013405;28;20041;-49
2022/03/01 02:45:49;;;;;;;16.17;9.88;;;2.10;99.90;;;;;;5013467;28;20108;-52
2022/03/01 02:48:15;;;;;;;18.45;10.25;;;2.10;99.90;;;;;;5013069;28;20397;-52
2022/03/01 02:50:40;;;;;;;19.67;11.13;;;2.10;99.90;;;;;;5013266;28;20045;-47
2022/03/01 02:53:07;;;;;;;18.17;10.52;;;2.10;99.90;;;;;;4994550;28;20075;-47
2022/03/01 02:55:33;;;;;;;19.13;10.95;;;2.10;99.90;;;;;;5013271;28;20038;-48
2022/03/01 02:57:58;;;;;;;19.42;10.43;;;2.20;99.90;;;;;;5011745;28;20573;-48
2022/03/01 03:00:24;;;;;;;18.35;10.75;;;2.10;99.90;;;;;;5013317;28;20034;-46
2022/03/01 03:02:50;;;;;;;18.48;10.52;;;2.20;99.90;;;;;;5013000;28;20041;-46
2022/03/01 03:05:16;;;;;;;19.38;10.68;;;2.10;99.90;;;;;;5002822;28;20044;-45
2022/03/01 03:07:43;;;;;;;17.50;10.23;;;2.10;99.90;;;;;;5013016;28;20077;-47
2022/03/01 03:10:08;;;;;;;18.08;10.43;;;2.10;99.90;;;;;;5012804;28;20065;-47
2022/03/01 03:12:34;;;;;;;17.98;10.38;;;2.20;99.90;;;;;;5013077;28;20095;-48
2022/03/01 03:15:00;;;;;;;18.50;11.35;;;2.20;99.90;;;;;;5011803;28;20525;-47
2022/03/01 03:17:26;;;;;;;17.10;9.75;;;2.20;99.90;;;;;;5012744;28;20418;-50
2022/03/01 03:19:51;;;;;;;17.85;9.68;;;2.20;99.90;;;;;;5013081;28;20498;-49
2022/03/01 03:22:17;;;;;;;16.75;10.48;;;2.20;99.90;;;;;;5012884;28;20482;-51
2022/03/01 03:24:43;;;;;;;19.52;10.25;;;2.20;99.90;;;;;;4995158;28;20042;-50
2022/03/01 03:27:08;;;;;;;17.67;10.25;;;2.20;99.90;;;;;;5012559;28;20049;-51
2022/03/01 03:29:34;;;;;;;17.48;10.27;;;2.20;99.90;;;;;;5012727;28;20038;-51
2022/03/01 03:32:00;;;;;;;17.15;10.18;;;2.30;99.90;;;;;;5012704;28;20037;-51
2022/03/01 03:34:26;;;;;;;18.98;10.60;;;2.20;99.90;;;;;;5012625;28;20040;-51
2022/03/01 03:36:52;;;;;;;17.83;10.45;;;2.20;99.90;;;;;;5012815;28;20034;-46
2022/03/01 03:39:18;;;;;;;17.60;11.05;;;2.30;99.90;;;;;;5012443;28;20046;-46
2022/03/01 03:41:44;;;;;;;20.02;11.43;;;2.30;99.90;;;;;;5012595;28;20084;-48
2022/03/01 03:44:10;;;;;;;20.92;11.68;;;2.20;99.90;;;;;;4994720;28;20117;-49
2022/03/01 03:46:36;;;;;;;18.00;10.35;;;2.20;99.90;;;;;;5012686;28;20041;-51
2022/03/01 03:49:02;;;;;;;17.52;10.43;;;2.20;99.90;;;;;;5012571;28;20100;-50
2022/03/01 03:51:28;;;;;;;17.48;11.50;;;2.20;99.90;;;;;;5012323;28;20041;-50
2022/03/01 03:53:54;;;;;;;16.58;10.23;;;2.20;99.90;;;;;;5012592;28;20053;-47
2022/03/01 03:56:20;;;;;;;19.75;10.98;;;2.20;99.90;;;;;;5012456;28;20037;-47
2022/03/01 03:58:45;;;;;;;15.77;9.40;;;2.20;99.90;;;;;;5012504;28;20100;-47
2022/03/01 04:01:11;;;;;;;16.58;10.48;;;2.20;99.90;;;;;;5012357;28;20129;-50
2022/03/01 04:03:37;;;;;;;18.98;10.70;;;2.20;99.90;;;;;;5012362;28;20045;-48
2022/03/01 04:06:03;;;;;;;19.42;10.35;;;2.30;99.90;;;;;;5028826;28;20593;-46
2022/03/01 04:08:29;;;;;;;22.65;10.98;;;2.30;99.90;;;;;;5035719;28;20037;-47
2022/03/01 04:10:56;;;;;;;18.27;11.23;;;2.20;99.90;;;;;;5034722;28;20095;-46
2022/03/01 04:13:23;;;;;;;18.83;11.00;;;2.30;99.90;;;;;;5035784;28;20128;-48
2022/03/01 04:15:50;;;;;;;20.77;11.00;;;2.30;99.90;;;;;;5036065;28;20121;-47
2022/03/01 04:18:15;;;;;;;17.77;10.38;;;2.30;99.90;;;;;;5036100;28;20041;-46
2022/03/01 04:20:41;;;;;;;18.48;11.02;;;2.30;99.90;;;;;;5035661;28;20775;-47
2022/03/01 04:23:07;;;;;;;18.95;10.70;;;2.20;99.90;;;;;;5035533;28;20045;-48
2022/03/01 04:25:33;;;;;;;20.95;11.82;;;2.20;99.90;;;;;;5035593;28;20044;-47
2022/03/01 04:27:59;;;;;;;18.20;10.52;;;2.20;99.90;;;;;;5035541;28;20073;-48
2022/03/01 04:30:27;;;;;;;16.73;10.88;;;2.30;99.90;;;;;;5034309;28;20041;-50
2022/03/01 04:32:54;;;;;;;17.98;10.57;;;2.20;99.90;;;;;;5035396;28;20044;-49
2022/03/01 04:35:20;;;;;;;17.30;10.52;;;2.20;99.90;;;;;;5035649;28;20362;-53
2022/03/01 04:37:46;;;;;;;19.42;10.95;;;2.20;99.90;;;;;;5035344;28;20048;-48
2022/03/01 04:40:14;;;;;;;17.98;10.48;;;2.30;99.90;;;;;;5035520;28;20080;-47
2022/03/01 04:42:41;;;;;;;18.10;10.20;;;2.30;99.90;;;;;;5035570;28;20041;-47
2022/03/01 04:45:07;;;;;;;18.23;11.07;;;2.30;99.90;;;;;;5035331;28;20038;-49
2022/03/01 04:47:33;;;;;;;17.27;11.00;;;2.20;99.90;;;;;;5034252;28;20083;-46
2022/03/01 04:49:59;;;;;;;17.70;11.23;;;2.30;99.90;;;;;;5035357;28;20589;-48
2022/03/01 04:52:25;;;;;;;17.15;10.30;;;2.30;99.90;;;;;;5017423;28;20560;-48
2022/03/01 04:54:51;;;;;;;18.52;11.40;;;2.30;99.90;;;;;;5034935;28;20508;-52
2022/03/01 04:57:16;;;;;;;17.20;10.75;;;2.30;99.90;;;;;;5035109;28;20041;-51
2022/03/01 04:59:42;;;;;;;17.58;10.95;;;2.30;99.90;;;;;;5035001;28;20029;-49
2022/03/01 05:02:08;;;;;;;20.08;11.00;;;2.30;99.90;;;;;;5035264;28;20077;-49
2022/03/01 05:04:34;;;;;;;16.85;10.88;;;2.30;99.90;;;;;;5009085;28;20049;-49
2022/03/01 05:07:00;;;;;;;18.30;11.05;;;2.30;99.90;;;;;;5034825;28;20037;-46
2022/03/01 05:09:26;;;;;;;19.75;11.30;;;2.30;99.90;;;;;;5034572;28;20099;-50
2022/03/01 05:11:52;;;;;;;17.00;9.98;;;2.30;99.90;;;;;;5034713;28;20102;-51
2022/03/01 05:14:18;;;;;;;17.55;10.77;;;2.30;99.90;;;;;;5034888;28;20049;-50
2022/03/01 05:16:45;;;;;;;18.73;11.30;;;2.30;99.90;;;;;;5033601;28;20045;-48
2022/03/01 05:19:12;;;;;;;17.08;11.35;;;2.30;99.90;;;;;;5034609;28;20071;-46
2022/03/01 05:21:38;;;;;;;17.38;11.00;;;2.30;99.90;;;;;;5034867;28;20045;-48
2022/03/01 05:24:04;;;;;;;22.27;11.85;;;2.30;99.90;;;;;;5034728;28;20665;-48
2022/03/01 05:26:30;;;;;;;20.63;11.18;;;2.30;99.90;;;;;;5016797;28;20041;-49
2022/03/01 05:28:56;;;;;;;21.70;12.63;;;2.30;99.90;;;;;;5034649;28;20044;-48
2022/03/01 05:31:22;;;;;;;20.15;11.10;;;2.30;99.90;;;;;;5034690;28;20049;-47
2022/03/01 05:33:48;;;;;;;20.63;11.32;;;2.30;99.90;;;;;;5034604;28;20163;-46
2022/03/01 05:36:15;;;;;;;18.98;12.02;;;2.40;99.90;;;;;;5034617;28;20442;-50
2022/03/01 05:38:42;;;;;;;20.45;11.10;;;2.30;99.90;;;;;;5034445;28;20049;-46
2022/03/01 05:41:08;;;;;;;24.40;12.27;;;2.30;99.90;;;;;;5034432;28;20401;-48
2022/03/01 05:43:34;;;;;;;20.45;12.63;;;2.30;99.90;;;;;;5016468;28;20079;-48
2022/03/01 05:46:01;;;;;;;22.73;11.02;;;2.30;99.90;;;;;;5016636;28;20545;-46
2022/03/01 05:48:26;;;;;;;20.35;10.93;;;2.30;99.90;;;;;;5034450;28;20049;-47
2022/03/01 05:50:53;;;;;;;19.80;11.88;;;2.40;99.90;;;;;;5033999;28;20045;-47
2022/03/01 05:53:18;;;;;;;17.67;10.80;;;2.30;99.90;;;;;;5034323;28;20397;-50
2022/03/01 05:55:44;;;;;;;22.25;12.45;;;2.40;99.90;;;;;;5034111;28;20045;-46
2022/03/01 05:58:10;;;;;;;20.42;11.82;;;2.40;99.90;;;;;;5033863;28;20094;-47
2022/03/01 06:00:36;;;;;;;21.63;11.82;;;2.40;99.90;;;;;;5033980;28;20045;-47
2022/03/01 06:03:02;;;;;;;21.70;11.70;;;2.40;99.90;;;;;;5034207;28;20037;-46
2022/03/01 06:05:28;;;;;;;19.95;11.40;;;2.40;99.90;;;;;;5007923;28;20037;-48
2022/03/01 06:07:55;;;;;;;22.70;12.85;;;2.40;99.90;;;;;;5033989;28;20054;-47
2022/03/01 06:10:22;;;;;;;20.13;12.00;;;2.50;99.90;;;;;;5033359;28;20096;-47
2022/03/01 06:12:48;;;;;;;20.15;11.88;;;2.40;99.90;;;;;;5033926;28;20101;-50
2022/03/01 06:15:14;;;;;;;24.65;11.73;;;2.40;99.90;;;;;;5033684;28;20057;-50
2022/03/01 06:17:40;;;;;;;20.83;11.98;;;2.50;99.90;;;;;;5033539;28;20045;-48
2022/03/01 06:20:07;;;;;;;19.25;11.40;;;2.50;99.90;;;;;;5033579;28;20398;-51
2022/03/01 06:22:34;;;;;;;21.58;11.27;;;2.50;99.90;;;;;;5033500;28;20038;-48
2022/03/01 06:25:00;;;;;;;22.10;13.25;;;2.50;99.90;;;;;;5033486;28;20044;-51
2022/03/01 06:27:26;;;;;;;20.38;12.05;;;2.50;99.90;;;;;;5033235;28;20041;-47
2022/03/01 06:29:51;;;;;;;19.83;11.70;;;2.60;99.90;;;;;;5015432;28;20041;-50
2022/03/01 06:32:17;;;;;;;20.85;11.88;;;2.60;99.90;;;;;;5033014;28;20434;-52
2022/03/01 06:34:43;;;;;;;18.70;11.82;;;2.60;99.90;;;;;;5033166;28;20041;-51
2022/03/01 06:37:13;;;;;;;21.23;11.70;;;2.60;99.90;;;;;;5033276;28;20038;-50
2022/03/01 06:39:43;;;;;;;19.70;12.02;;;2.60;99.90;;;;;;5033310;28;20038;-49
2022/03/01 06:42:10;;;;;;;20.20;12.73;;;2.60;99.90;;;;;;5032962;28;20079;-47
2022/03/01 06:44:36;;;;;;;18.10;12.40;;;2.70;99.90;;;;;;5033240;28;20048;-50
2022/03/01 06:47:03;;;;;;;20.63;12.32;;;2.70;99.90;;;;;;5032967;28;20371;-47
2022/03/01 06:49:29;;;;;;;20.80;12.60;;;2.70;99.90;;;;;;5033114;28;20517;-50
2022/03/01 06:51:56;;;;;;;20.05;12.48;;;2.80;99.90;;;;;;5031771;28;20155;-46
2022/03/01 06:54:22;;;;;;;21.23;12.82;;;2.70;99.90;;;;;;5032890;28;20041;-47
2022/03/01 06:56:48;;;;;;;21.75;12.93;;;2.80;99.90;;;;;;5032912;28;20493;-48
2022/03/01 06:59:14;;;;;;;19.52;12.13;;;2.80;99.90;;;;;;5032588;28;20053;-51
2022/03/01 07:01:40;;;;;;;21.88;11.80;;;2.80;99.90;;;;;;5032822;28;20109;-49
2022/03/01 07:04:06;;;;;;;21.25;12.75;;;2.90;99.90;;;;;;5026453;28;20117;-46
2022/03/01 07:06:31;;;;;;;25.15;13.88;;;2.90;99.90;;;;;;5031297;28;20051;-48
2022/03/01 07:08:57;;;;;;;23.65;13.73;;;2.90;99.90;;;;;;5031438;28;20048;-48
2022/03/01 07:11:23;;;;;;;24.23;13.38;;;2.90;99.90;;;;;;5032386;28;20406;-51
2022/03/01 07:13:50;;;;;;;20.85;12.15;;;3.00;99.90;;;;;;5015154;28;20060;-47
2022/03/01 07:16:16;;;;;;;20.75;12.30;;;3.00;99.90;;;;;;5032586;28;20046;-49
2022/03/01 07:18:42;;;;;;;22.38;12.88;;;3.00;99.90;;;;;;5014691;28;20482;-47
2022/03/01 07:21:08;;;;;;;21.92;13.68;;;3.10;99.90;;;;;;5032614;28;20044;-48
2022/03/01 07:23:34;;;;;;;23.52;12.18;;;3.10;99.90;;;;;;5032496;28;20041;-50
2022/03/01 07:26:01;;;;;;;22.42;12.73;;;3.10;99.90;;;;;;5032250;28;20445;-49
2022/03/01 07:28:27;;;;;;;22.67;12.57;;;3.20;99.90;;;;;;5032510;28;20041;-48
2022/03/01 07:30:54;;;;;;;22.90;12.55;;;3.20;99.90;;;;;;5032083;28;20115;-51
2022/03/01 07:33:19;;;;;;;20.92;12.68;;;3.20;99.90;;;;;;5032154;28;20063;-52
2022/03/01 07:35:46;;;;;;;23.23;12.60;;;3.30;99.90;;;;;;5031200;28;20083;-52
2022/03/01 07:38:11;;;;;;;19.13;12.52;;;3.40;99.90;;;;;;5032283;28;20042;-48
2022/03/01 07:40:37;;;;;;;20.25;12.65;;;3.40;99.90;;;;;;5031690;28;20857;-48
2022/03/01 07:43:03;;;;;;;22.02;13.23;;;3.40;99.90;;;;;;5032476;28;20041;-49
2022/03/01 07:45:29;;;;;;;21.50;12.35;;;3.40;99.90;;;;;;5032090;28;20409;-53
2022/03/01 07:47:56;;;;;;;21.00;12.75;;;3.50;99.90;;;;;;5031661;28;20085;-51
2022/03/01 07:50:22;;;;;;;20.13;12.32;;;3.40;99.90;;;;;;5031142;28;20053;-51
2022/03/01 07:52:48;;;;;;;22.85;13.38;;;3.50;99.90;;;;;;5031384;28;20083;-52
2022/03/01 07:55:14;;;;;;;20.00;12.35;;;3.50;99.90;;;;;;5030934;28;20128;-50
2022/03/01 07:57:39;;;;;;;20.83;13.68;;;3.50;99.90;;;;;;5031006;28;20049;-46
2022/03/01 08:00:09;;;;;;;21.60;13.13;;;3.50;99.90;;;;;;5030754;28;20519;-50
2022/03/01 08:02:36;;;;;;;21.35;12.88;;;3.50;99.90;;;;;;5030843;28;20571;-47
2022/03/01 08:05:03;;;;;;;21.50;12.73;;;3.50;99.90;;;;;;5023386;28;20041;-50
2022/03/01 08:07:28;;;;;;;20.88;13.63;;;3.50;99.90;;;;;;5013697;28;20037;-46
2022/03/01 08:09:54;;;;;;;25.15;14.50;;;3.50;99.90;;;;;;5031071;28;20072;-47
2022/03/01 08:12:20;;;;;;;22.02;13.55;;;3.50;99.90;;;;;;5031167;28;20072;-49
2022/03/01 08:14:45;;;;;;;23.20;13.75;;;3.50;99.90;;;;;;5031193;28;20045;-49
2022/03/01 08:17:11;;;;;;;22.30;13.63;;;3.60;99.90;;;;;;5030641;28;20052;-50
2022/03/01 08:19:37;;;;;;;28.88;14.82;;;3.60;99.90;;;;;;5030987;28;20590;-48
2022/03/01 08:22:03;;;;;;;28.25;16.17;;;3.60;99.90;;;;;;5031032;28;20034;-47
2022/03/01 08:24:28;;;;;;;20.70;13.63;;;3.60;99.90;;;;;;5022797;28;20049;-49
2022/03/01 08:26:54;;;;;;;22.40;13.23;;;3.70;99.90;;;;;;5006003;28;20046;-51
2022/03/01 08:29:20;;;;;;;20.45;12.43;;;3.70;99.90;;;;;;5023211;28;20421;-50
2022/03/01 08:31:46;;;;;;;24.13;15.38;;;3.70;99.90;;;;;;5022040;28;20061;-48
2022/03/01 08:34:12;;;;;;;22.55;12.75;;;3.80;99.90;;;;;;5023814;28;20060;-53
2022/03/01 08:36:38;;;;;;;25.25;13.73;;;3.90;99.90;;;;;;5025659;28;20045;-49
2022/03/01 08:39:05;;;;;;;22.77;13.75;;;3.90;99.90;;;;;;5025383;28;20064;-46
2022/03/01 08:41:31;;;;;;;22.65;13.07;;;4.00;99.90;;;;;;5025240;28;20711;-48
2022/03/01 08:43:57;;;;;;;19.88;12.60;;;4.10;99.90;;;;;;5005609;28;20080;-47
2022/03/01 08:46:23;;;;;;;20.42;12.40;;;4.20;99.90;;;;;;5024025;28;20453;-47
2022/03/01 08:48:53;;;;;;;22.42;13.05;;;4.30;99.90;;;;;;5024091;28;20843;-47
2022/03/01 08:51:21;;;;;;;23.25;13.20;;;4.40;99.90;;;;;;5009814;28;20425;-47
2022/03/01 08:53:47;;;;;;;19.10;13.02;;;4.40;99.90;;;;;;5028221;28;20050;-48
2022/03/01 08:56:15;;;;;;;22.17;13.48;;;4.50;99.90;;;;;;5026763;28;20593;-47
2022/03/01 08:58:44;;;;;;;22.20;13.48;;;4.50;99.90;;;;;;5027633;28;20081;-53
2022/03/01 09:01:10;;;;;;;20.17;13.13;;;4.60;99.90;;;;;;5009366;28;20034;-48
2022/03/01 09:03:36;;;;;;;19.73;12.95;;;4.70;99.90;;;;;;5027291;28;20032;-51
2022/03/01 09:06:05;;;;;;;20.98;13.05;;;4.70;99.90;;;;;;5028138;28;20033;-47
2022/03/01 09:08:35;;;;;;;21.13;13.07;;;4.80;99.90;;;;;;5028097;28;20548;-46
2022/03/01 09:11:01;;;;;;;19.85;12.07;;;4.90;99.90;;;;;;5026198;28;20054;-47
2022/03/01 09:13:28;;;;;;;21.92;12.20;;;4.90;99.90;;;;;;5027031;28;20393;-53
2022/03/01 09:15:54;;;;;;;21.67;13.25;;;5.00;99.90;;;;;;5027895;28;20061;-51
2022/03/01 09:18:21;;;;;;;20.85;13.38;;;5.00;99.90;;;;;;5008668;28;20096;-48
2022/03/01 09:20:48;;;;;;;22.30;13.43;;;5.10;99.90;;;;;;5007280;28;20045;-51
2022/03/01 09:23:14;;;;;;;20.92;13.65;;;5.10;99.90;;;;;;5026734;28;20076;-52
2022/03/01 09:25:40;;;;;;;20.70;12.88;;;5.10;99.90;;;;;;5027321;28;20034;-50
2022/03/01 09:28:05;;;;;;;23.05;13.05;;;5.20;99.90;;;;;;5009510;28;20041;-50
2022/03/01 09:30:32;;;;;;;19.35;13.35;;;5.20;99.90;;;;;;5025957;28;20042;-47
2022/03/01 09:32:57;;;;;;;20.58;13.25;;;5.20;99.90;;;;;;5028508;28;20108;-47
2022/03/01 09:35:23;;;;;;;19.48;12.13;;;5.20;99.90;;;;;;5033001;28;20673;-50
2022/03/01 09:37:49;;;;;;;20.50;12.50;;;5.30;99.90;;;;;;5032438;28;20056;-49
2022/03/01 09:40:15;;;;;;;21.13;13.50;;;5.30;99.90;;;;;;5032538;28;20103;-49
2022/03/01 09:42:41;;;;;;;21.27;13.48;;;5.40;99.90;;;;;;5033110;28;20033;-49
2022/03/01 09:45:09;;;;;;;22.50;13.52;;;5.40;99.90;;;;;;5032924;28;20377;-47
2022/03/01 09:47:36;;;;;;;21.02;12.52;;;5.40;99.90;;;;;;5014934;28;20074;-51
2022/03/01 09:50:03;;;;;;;22.33;13.75;;;5.40;99.90;;;;;;5033233;28;20033;-51
2022/03/01 09:52:28;;;;;;;23.10;13.82;;;5.60;99.90;;;;;;5033599;28;20419;-49
2022/03/01 09:54:54;;;;;;;21.33;12.85;;;5.60;99.90;;;;;;5032839;28;20049;-51
2022/03/01 09:57:20;;;;;;;19.02;12.02;;;5.70;99.90;;;;;;5032729;28;20045;-51
2022/03/01 09:59:46;;;;;;;21.00;12.88;;;5.80;99.90;;;;;;5032765;28;20029;-49
2022/03/01 10:02:12;;;;;;;20.23;12.77;;;5.90;99.90;;;;;;5032744;28;20445;-46
2022/03/01 10:04:50;;;;;;;21.23;13.30;;;6.10;99.90;;;;;;5029875;28;20116;-47
2022/03/01 10:07:21;;;;;;;21.75;14.57;;;6.20;99.90;;;;;;5011960;28;20502;-46
2022/03/01 10:09:48;;;;;;;20.80;13.43;;;6.30;99.90;;;;;;5013133;28;20054;-48
2022/03/01 10:12:21;;;;;;;23.33;14.45;;;6.30;99.90;;;;;;5013244;28;20042;-46
2022/03/01 10:14:59;;;;;;;23.77;14.20;;;6.30;99.90;;;;;;5013306;28;20041;-46
2022/03/01 10:17:38;;;;;;;21.98;13.57;;;6.40;99.90;;;;;;5013090;28;20383;-46
2022/03/01 10:20:07;;;;;;;22.15;13.60;;;6.40;99.90;;;;;;5013109;28;20077;-48
2022/03/01 10:22:33;;;;;;;23.60;14.70;;;6.40;99.90;;;;;;5013173;28;20041;-48
2022/03/01 10:25:07;;;;;;;20.45;13.05;;;6.50;99.90;;;;;;5013696;28;20502;-46
2022/03/01 10:27:34;;;;;;;21.80;13.35;;;6.60;99.90;;;;;;5013576;28;20486;-47
2022/03/01 10:30:01;;;;;;;22.20;14.20;;;6.70;99.90;;;;;;5013631;28;20033;-47
2022/03/01 10:32:27;;;;;;;20.95;14.20;;;6.70;99.90;;;;;;5013480;28;20038;-46
2022/03/01 10:34:58;;;;;;;20.73;12.82;;;6.70;99.90;;;;;;5013638;28;20041;-46
2022/03/01 10:37:29;;;;;;;22.10;13.55;;;6.80;99.90;;;;;;5013372;28;20038;-47
2022/03/01 10:40:16;;;;;;;20.67;13.75;;;7.00;99.90;;;;;;5013626;28;20112;-49
2022/03/01 10:42:42;;;;;;;23.58;13.93;;;7.10;99.90;;;;;;5013562;28;20115;-50
2022/03/01 10:45:09;;;;;;;21.55;13.45;;;7.20;99.90;;;;;;5013532;28;20040;-51
2022/03/01 10:47:37;;;;;;;20.88;13.50;;;7.10;99.90;;;;;;5013490;28;20389;-47
2022/03/01 10:50:09;;;;;;;21.95;13.27;;;7.10;99.90;;;;;;5013260;28;20049;-51
2022/03/01 10:52:36;;;;;;;22.90;14.07;;;7.20;99.90;;;;;;5013410;28;20049;-47
2022/03/01 10:55:04;;;;;;;22.85;13.73;;;7.10;99.90;;;;;;5013082;28;20038;-49
2022/03/01 10:57:29;;;;;;;21.13;13.88;;;7.00;99.90;;;;;;5011785;28;20080;-49
2022/03/01 10:59:55;;;;;;;23.02;14.98;;;6.90;99.90;;;;;;5012887;28;20069;-48
2022/03/01 11:02:21;;;;;;;21.98;14.00;;;7.00;99.90;;;;;;5013135;28;20038;-48
2022/03/01 11:04:49;;;;;;;21.83;14.55;;;7.00;99.90;;;;;;5020552;28;20042;-46
2022/03/01 11:07:15;;;;;;;21.25;13.75;;;7.00;99.90;;;;;;5013001;28;20033;-46
2022/03/01 11:09:43;;;;;;;24.30;14.48;;;7.00;99.90;;;;;;5012087;28;20056;-46
2022/03/01 11:12:09;;;;;;;21.17;13.73;;;6.90;99.90;;;;;;5011890;28;20057;-46
2022/03/01 11:14:44;;;;;;;24.65;14.40;;;6.90;99.90;;;;;;5011119;28;20119;-46
2022/03/01 11:17:35;;;;;;;23.67;14.10;;;6.90;99.90;;;;;;5011769;28;20430;-49
2022/03/01 11:20:06;;;;;;;22.50;14.00;;;6.90;99.90;;;;;;5012015;28;20042;-47
2022/03/01 11:22:44;;;;;;;23.23;13.97;;;6.80;99.90;;;;;;5011853;28;20068;-46
2022/03/01 11:25:22;;;;;;;21.50;13.65;;;6.80;99.90;;;;;;5011889;28;20398;-47
2022/03/01 11:27:52;;;;;;;20.42;13.57;;;6.70;99.90;;;;;;5011617;28;20046;-46
2022/03/01 11:30:27;;;;;;;20.65;14.15;;;6.80;99.90;;;;;;5011733;28;20076;-47
2022/03/01 11:32:56;;;;;;;19.73;13.10;;;6.80;99.90;;;;;;5011673;28;20041;-47
2022/03/01 11:35:27;;;;;;;21.17;13.18;;;6.80;99.90;;;;;;5011892;28;20038;-46
2022/03/01 11:38:08;;;;;;;21.60;14.35;;;6.80;99.90;;;;;;5011430;28;20049;-46
2022/03/01 11:40:48;;;;;;;20.25;12.80;;;6.80;99.90;;;;;;5011586;28;20057;-47
2022/03/01 11:43:28;;;;;;;20.05;13.82;;;6.80;99.90;;;;;;5011164;28;20041;-47
2022/03/01 11:45:56;;;;;;;21.60;13.45;;;6.80;99.90;;;;;;5011144;28;20414;-49
2022/03/01 11:48:29;;;;;;;20.25;13.02;;;6.70;99.90;;;;;;5011295;28;20395;-46
2022/03/01 11:51:05;;;;;;;22.67;14.52;;;6.70;99.90;;;;;;5011544;28;20045;-47
2022/03/01 11:53:41;;;;;;;24.67;14.57;;;6.70;99.90;;;;;;5011428;28;20393;-47
2022/03/01 11:56:08;;;;;;;21.85;13.68;;;6.50;99.90;;;;;;5011527;28;20052;-46
2022/03/01 11:58:36;;;;;;;21.75;14.52;;;6.60;99.90;;;;;;5011187;28;20121;-50
2022/03/01 12:01:07;;;;;;;20.42;13.77;;;6.60;99.90;;;;;;5011086;28;20482;-53
2022/03/01 12:03:35;;;;;;;22.02;13.82;;;6.70;99.90;;;;;;5011881;28;20482;-50
2022/03/01 12:06:02;;;;;;;23.65;14.80;;;6.70;99.90;;;;;;5016705;28;20375;-51
2022/03/01 12:08:29;;;;;;;22.70;14.32;;;6.70;99.90;;;;;;5010900;28;20551;-47
2022/03/01 12:10:57;;;;;;;21.77;13.93;;;6.70;99.90;;;;;;5011078;28;20418;-47
2022/03/01 12:13:44;;;;;;;18.73;12.90;;;6.70;99.90;;;;;;4993796;28;20104;-49
2022/03/01 12:16:12;;;;;;;22.48;13.82;;;6.80;99.90;;;;;;5011472;28;20053;-48
2022/03/01 12:18:41;;;;;;;21.75;13.98;;;6.90;99.90;;;;;;5010633;28;20049;-48
2022/03/01 12:21:11;;;;;;;23.30;13.88;;;6.90;99.90;;;;;;5010820;28;20394;-53
2022/03/01 12:23:38;;;;;;;22.00;13.95;;;7.10;99.90;;;;;;5011055;28;20093;-48
2022/03/01 12:26:06;;;;;;;24.80;14.88;;;7.00;99.90;;;;;;5012859;28;20037;-47
2022/03/01 12:28:45;;;;;;;23.52;14.43;;;7.00;99.90;;;;;;5014942;28;20053;-51
2022/03/01 12:31:22;;;;;;;21.75;14.57;;;7.10;99.90;;;;;;5015091;28;20049;-47
2022/03/01 12:33:56;;;;;;;25.58;15.23;;;7.10;99.90;;;;;;5015239;28;20120;-49
2022/03/01 12:36:29;;;;;;;23.10;14.52;;;7.20;99.90;;;;;;5015296;28;20112;-48
2022/03/01 12:38:59;;;;;;;23.20;15.23;;;7.10;99.90;;;;;;5014767;28;20052;-48